NCAR-RAP Real-Time Weather Data

Output produced by METARs form (17 December 2018  08:39 UTC)
found at http://weather.rap.ucar.edu/surface/
 
ROAH 170800Z 36020KT 9000 SCT035 BKN045 18/09 Q1019 RMK 3CU035 6SC045 A3011
ROAH 170732Z 35020G30KT 9999 FEW035 BKN045 19/10 Q1019 RMK 2CU035 5SC045 A3010
ROAH 170730Z 35020KT 9999 FEW035 BKN045 19/10 Q1019 RMK 2CU035 5SC045 A3010
ROAH 170700Z 35019KT 9999 FEW035 SCT040 19/09 Q1019 RMK 1CU035 3SC040 A3010
ROAH 170630Z 35020KT 9999 FEW035 BKN040 19/10 Q1019 RMK 1CU035 5SC040 A3010
ROAH 170600Z 34019KT 9999 FEW035 BKN040 20/09 Q1019 RMK 1CU035 5SC040 A3009
ROAH 170530Z 34021KT 9999 FEW035 SCT040 19/10 Q1019 RMK 1CU035 4SC040 A3009
ROAH 170500Z 35018KT 9999 FEW035 SCT040 20/10 Q1019 RMK 1CU035 3SC040 A3009
ROAH 170430Z 34019KT 9999 FEW035 SCT045 21/10 Q1019 RMK 1CU035 4SC045 A3009
ROAH 170400Z 35018KT 9999 FEW035 SCT045 20/10 Q1019 RMK 1CU035 4SC045 A3010
ROAH 170330Z 34018KT 9999 FEW040 SCT120 21/11 Q1019 RMK 2SC040 4AC120 A3010
ROAH 170300Z 34019KT 9999 FEW035 SCT050 BKN110 21/11 Q1020 RMK 1CU035 3SC050 5AC110 A3012
ROAH 170230Z 34018KT 9999 FEW035 BKN045 21/11 Q1020 RMK 2CU035 6SC045 A3012
ROAH 170200Z 33019KT 9999 FEW035 BKN050 20/11 Q1020 RMK 2CU035 6SC050 A3013
ROAH 170130Z 33017KT 9999 FEW030 SCT035 BKN050 20/11 Q1020 RMK 1CU030 3CU035 6SC050 A3013
ROAH 170100Z 33017KT 9999 FEW030 SCT035 BKN045 20/12 Q1020 RMK 1CU030 3CU035 6SC045 A3013
ROAH 170030Z 34017KT 9999 FEW030 BKN050 20/13 Q1019 RMK 1CU030 6SC050 A3010
ROAH 170000Z 33013KT 9999 FEW030 SCT050 BKN100 20/12 Q1019 RMK 1CU030 4SC050 6AC100 A3010
ROAH 162330Z 33014KT 9999 FEW030 SCT050 BKN090 20/12 Q1018 RMK 1CU030 4SC050 6AC090 A3009
ROAH 162300Z 34016KT 9999 FEW030 BKN045 20/12 Q1018 RMK 1CU030 6SC045 A3008
ROAH 162230Z 33017KT 9999 FEW030 BKN045 19/11 Q1018 RMK 1CU030 6SC045 A3007
ROAH 162200Z 34017KT 9999 FEW030 BKN045 19/12 Q1017 RMK 1CU030 6SC045 A3005
ROAH 162130Z 33017KT 9999 FEW030 BKN045 19/12 Q1017 RMK 1CU030 6SC045 A3005
ROAH 162100Z 33017KT 9999 FEW025 BKN045 19/13 Q1017 RMK 1CU025 6SC045 A3004
ROAH 162030Z 33017KT 9999 FEW025 BKN045 19/13 Q1017 RMK 1CU025 6SC045 A3003
ROAH 162000Z 33016KT 9999 FEW025 BKN045 20/14 Q1016 RMK 1CU025 6SC045 A3002
ROAH 161930Z 33015KT 9999 FEW025 BKN045 20/14 Q1016 RMK 1CU025 6SC045 A3002
ROAH 161900Z 33016KT 9999 FEW025 BKN045 20/14 Q1016 RMK 1CU025 6SC045 A3002
ROAH 161830Z 33014KT 9999 FEW025 BKN045 20/15 Q1016 RMK 1CU025 6SC045 A3002
ROAH 161800Z 33017KT 9999 FEW020 BKN045 20/15 Q1016 RMK 2CU020 6SC045 A3002
ROAH 161730Z 33017KT 9999 -RA FEW020 BKN050 20/16 Q1016 RMK 2CU020 6SC050 A3003
ROAH 161700Z 33017KT 9999 FEW020 BKN050 20/16 Q1016 RMK 2CU020 6SC050 A3003
ROAH 161630Z 33016KT 9999 -RA FEW020 BKN040 20/16 Q1017 RMK 2CU020 6SC040 A3003
ROAH 161600Z 33015KT 9999 FEW020 BKN045 21/16 Q1017 RMK 2CU020 6SC045 A3003
ROAH 161530Z 33017KT 9999 FEW020 BKN045 21/16 Q1017 RMK 1CU020 6SC045 A3003
ROAH 161500Z 33013KT 9999 FEW010 BKN040 21/17 Q1017 RMK 1CU010 5SC040 A3003
ROAH 161430Z 33009KT 9999 -RA FEW010 BKN040 20/17 Q1017 RMK 1CU010 5SC040 A3004
ROAH 161400Z 33011KT 9999 -RA FEW013 BKN037 20/17 Q1017 RMK 1CU013 7SC037 A3004
ROAH 161330Z 32015KT 9999 -RA FEW013 BKN035 20/17 Q1017 RMK 1CU013 7SC035 A3005
ROAH 161300Z 33015KT 9999 -RA FEW013 BKN040 20/17 Q1017 RMK 2CU013 7SC040 A3005
ROAH 161230Z 32019KT 9999 -SHRA FEW007 SCT030 BKN045 20/18 Q1017 RMK 2ST007 4CU030 7SC045 A3005
ROAH 161226Z 31018KT 230V340 9999 -SHRA FEW013 SCT043 BKN045 21/18 Q1017 RMK 2CU013 4CU043 7SC045 A3005
ROAH 161200Z 23011KT 9999 FEW030 BKN048 23/17 Q1017 RMK 1CU030 7SC048 A3004
ROAH 161130Z 22011KT 9999 FEW030 BKN050 23/17 Q1017 RMK 1CU030 7SC050 A3003
ROAH 161100Z 22011KT 9999 FEW030 BKN050 23/16 Q1017 RMK 1CU030 6SC050 A3003
ROAH 161030Z 22011KT 9999 FEW030 SCT050 23/17 Q1017 RMK 1CU030 3SC050 A3004
ROAH 161000Z 21011KT 9999 FEW030 23/16 Q1017 RMK 2CU030 A3003
ROAH 160930Z 22011KT 9999 FEW030 23/16 Q1017 RMK 2CU030 A3004
ROAH 160900Z 22010KT 9999 FEW030 23/16 Q1017 RMK 2CU030 A3004
ROAH 160830Z 21010KT 9999 FEW030 23/16 Q1017 RMK 1CU030 A3003
ROAH 160800Z 22011KT 9999 FEW030 23/16 Q1017 RMK 1CU030 A3003
ROAH 160730Z 22010KT 9999 FEW030 24/16 Q1017 RMK 1CU030 A3004
ROAH 160700Z 22010KT 170V230 9999 FEW030 24/15 Q1017 RMK 1CU030 A3003
ROAH 160630Z 21010KT 9999 FEW033 24/15 Q1017 RMK 1CU033 A3004
ROAH 160600Z 20010KT 9999 FEW035 24/15 Q1017 RMK 1CU035 A3005
ROAH 160530Z 20010KT 9999 FEW035 24/14 Q1018 RMK 1CU035 A3006
ROAH 160500Z 20010KT 150V230 9999 FEW035 24/14 Q1018 RMK 1CU035 A3007
ROAH 160430Z 20008KT 9999 FEW035 SCT070 24/14 Q1018 RMK 1CU035 3AC070 A3009
ROAH 160400Z 20009KT 160V220 9999 FEW035 24/14 Q1019 RMK 1CU035 A3010
ROAH 160330Z 20008KT 9999 FEW035 23/13 Q1019 RMK 1CU035 A3011
ROAH 160300Z 20009KT 9999 FEW035 24/13 Q1020 RMK 1CU035 A3012
ROAH 160230Z 20008KT 9999 FEW035 23/13 Q1020 RMK 1CU035 A3013
ROAH 160200Z 18006KT 150V210 9999 FEW035 23/13 Q1021 RMK 1CU035 A3016
ROAH 160130Z 19006KT 160V220 9999 FEW035 23/12 Q1021 RMK 1CU035 A3017
ROAH 160100Z 20003KT 150V240 9999 FEW035 22/13 Q1022 RMK 1CU035 A3018
ROAH 160030Z 14004KT 9999 FEW035 21/12 Q1021 RMK 1CU035 A3016
ROAH 160000Z 12003KT 9999 FEW030 21/13 Q1021 RMK 1CU030 A3016
ROAH 152330Z 08003KT 9999 FEW030 19/13 Q1021 RMK 1CU030 A3016
ROAH 151330Z 03007KT 9999 FEW035 18/11 Q1023 RMK 1CU035 A3023
ROAH 151300Z 04007KT 010V070 9999 FEW035 18/10 Q1024 RMK 1CU035 A3024
ROAH 151230Z 03007KT 9999 FEW035 18/10 Q1024 RMK 1CU035 A3025
ROAH 151200Z 03008KT 9999 FEW035 18/10 Q1024 RMK 1CU035 A3024
ROAH 151130Z VRB06KT 9999 FEW035 19/10 Q1024 RMK 1CU035 A3025
ROAH 151100Z 03008KT 9999 FEW035 19/10 Q1024 RMK 1CU035 A3024
ROAH 151030Z 04008KT 9999 FEW035 19/10 Q1024 RMK 1CU035 A3025
ROAH 151000Z 04009KT 010V080 9999 FEW040 19/09 Q1024 RMK 1SC040 A3025
ROAH 150930Z 03011KT 9999 FEW040 SCT200 19/10 Q1024 RMK 2SC040 3AC200 A3025
ROAH 150900Z 04007KT 010V090 9999 SCT040 19/09 Q1024 RMK 3SC040 A3024
ROAH 150830Z 05007KT 360V130 9999 SCT040 19/09 Q1023 RMK 3SC040 A3023
ROAH 150800Z 05009KT 020V090 9999 SCT040 20/09 Q1023 RMK 3SC040 A3022
ROAH 150730Z 06009KT 020V100 9999 FEW035 SCT040 20/09 Q1023 RMK 1CU035 3SC040 A3022
ROAH 150700Z 07011KT 050V110 9999 FEW035 20/09 Q1022 RMK 2CU035 A3021
ROAH 150630Z 06010KT 020V100 9999 FEW035 20/09 Q1023 RMK 2CU035 A3022
ROAH 150600Z 07010KT 040V150 9999 FEW035 21/09 Q1023 RMK 2CU035 A3022
ROAH 150530Z 08009KT 040V130 9999 FEW035 21/09 Q1023 RMK 2CU035 A3021
ROAH 150500Z 08009KT 050V150 9999 FEW035 21/09 Q1023 RMK 1CU035 A3022
ROAH 150430Z 07010KT 050V120 9999 FEW035 21/10 Q1024 RMK 1CU035 A3024
ROAH 150400Z 08009KT 050V120 9999 FEW035 21/09 Q1024 RMK 1CU035 A3026
ROAH 150330Z 07008KT 030V120 9999 FEW035 21/08 Q1025 RMK 1CU035 A3028
ROAH 150300Z 04009KT 360V110 9999 FEW035 21/09 Q1026 RMK 1CU035 A3030
ROAH 150230Z 05010KT 010V090 9999 FEW035 21/09 Q1026 RMK 1CU035 A3032
ROAH 150200Z 05012KT 010V150 9999 FEW035 20/08 Q1026 RMK 1CU035 A3032
ROAH 150130Z 06013KT 020V100 9999 FEW035 20/08 Q1027 RMK 1CU035 A3034
ROAH 150100Z 05012KT 020V080 9999 FEW035 SCT060 19/08 Q1027 RMK 1CU035 4SC060 A3034
ROAH 150030Z 05009KT 9999 FEW035 BKN050 19/08 Q1027 RMK 1CU035 6SC050 A3034
ROAH 150000Z 05012KT 9999 FEW035 BKN050 18/09 Q1027 RMK 1CU035 7SC050 A3034
ROAH 142330Z 06009KT 9999 FEW035 BKN060 18/09 Q1027 RMK 1CU035 7SC060 A3034
ROAH 142300Z 05009KT 9999 FEW030 BKN050 18/09 Q1027 RMK 1CU030 7SC050 A3033
ROAH 142230Z 06008KT 9999 FEW030 BKN060 18/09 Q1026 RMK 1CU030 6SC060 A3032
ROAH 142200Z 06009KT 030V090 9999 FEW030 BKN060 18/09 Q1026 RMK 1CU030 5SC060 A3031
ROAH 142130Z 05008KT 9999 FEW030 BKN060 18/09 Q1026 RMK 1CU030 6SC060 A3031
ROAH 142100Z 05010KT 9999 FEW030 BKN050 18/10 Q1026 RMK 1CU030 6SC050 A3031